createdAt,value
2022-09-30T00:00:41.823Z,76.38
2022-09-30T00:04:04.898Z,76.38
2022-09-30T00:07:07.885Z,76.33
2022-09-30T00:10:11.071Z,76.30
2022-09-30T00:13:15.100Z,76.30
2022-09-30T00:16:21.300Z,76.38
2022-09-30T00:19:24.478Z,76.40
2022-09-30T00:22:27.473Z,76.33
2022-09-30T00:25:30.553Z,76.30
2022-09-30T00:28:34.369Z,76.31
2022-09-30T00:31:37.538Z,76.35
2022-09-30T00:34:41.127Z,76.33
2022-09-30T00:37:44.158Z,76.30
2022-09-30T00:40:47.525Z,76.35
2022-09-30T00:43:53.629Z,76.42
2022-09-30T00:46:57.141Z,76.50
2022-09-30T00:50:10.113Z,76.50
2022-09-30T00:53:24.695Z,76.63
2022-09-30T00:56:38.376Z,76.72
2022-09-30T00:59:45.715Z,76.79
2022-09-30T01:02:49.714Z,76.85
2022-09-30T01:05:53.704Z,76.90
2022-09-30T01:08:58.556Z,76.87
2022-09-30T01:12:07.276Z,76.92
2022-09-30T01:15:10.843Z,76.94
2022-09-30T01:18:21.318Z,77.07
2022-09-30T01:21:40.982Z,77.09
2022-09-30T01:25:02.383Z,77.08
2022-09-30T01:28:26.203Z,77.13
2022-09-30T01:31:49.465Z,77.18
2022-09-30T01:35:15.544Z,77.24
2022-09-30T01:38:18.691Z,77.31
2022-09-30T01:41:54.688Z,77.40
2022-09-30T01:45:13.633Z,77.47
2022-09-30T01:48:28.591Z,77.48
2022-09-30T01:51:45.914Z,77.49
2022-09-30T01:55:38.141Z,77.45
2022-09-30T01:58:53.544Z,77.51
2022-09-30T02:02:06.920Z,77.61
2022-09-30T02:05:19.645Z,77.57
2022-09-30T02:08:35.515Z,77.57
2022-09-30T02:11:41.079Z,77.61
2022-09-30T02:14:57.339Z,77.67
2022-09-30T02:18:08.435Z,77.69
2022-09-30T02:21:15.941Z,77.69
2022-09-30T02:24:25.368Z,77.71
2022-09-30T02:27:34.702Z,77.73
2022-09-30T02:30:43.200Z,77.75
2022-09-30T02:33:55.103Z,77.77
2022-09-30T02:37:32.859Z,77.84
2022-09-30T02:40:47.555Z,77.86
2022-09-30T02:43:52.425Z,77.92
2022-09-30T02:47:19.438Z,77.98
2022-09-30T02:50:53.507Z,78.09
2022-09-30T02:54:07.483Z,78.14
2022-09-30T02:57:47.638Z,78.17
2022-09-30T03:00:50.634Z,78.24
2022-09-30T03:04:00.750Z,78.32
2022-09-30T03:07:03.916Z,78.34
2022-09-30T03:10:15.692Z,78.34
2022-09-30T03:13:44.382Z,78.36
2022-09-30T03:17:17.278Z,78.42
2022-09-30T03:20:34.510Z,78.51
2022-09-30T03:23:59.104Z,78.64
2022-09-30T03:27:32.557Z,78.71
2022-09-30T03:30:45.406Z,78.74
2022-09-30T03:34:22.246Z,78.79
2022-09-30T03:37:40.413Z,78.91
2022-09-30T03:41:02.972Z,78.97
2022-09-30T03:44:17.308Z,79.07
2022-09-30T03:47:22.466Z,79.01
2022-09-30T03:50:28.309Z,79.04
2022-09-30T03:53:31.554Z,79.04
2022-09-30T03:56:34.498Z,79.09
2022-09-30T03:59:37.382Z,79.12
2022-09-30T04:02:40.419Z,79.14
2022-09-30T04:05:43.758Z,79.19
2022-09-30T04:08:46.765Z,79.25
2022-09-30T04:11:49.739Z,79.30
2022-09-30T04:14:52.767Z,79.35
2022-09-30T04:17:55.764Z,79.43
2022-09-30T04:20:59.291Z,79.49
2022-09-30T04:24:02.529Z,79.53
2022-09-30T04:27:05.528Z,79.57
2022-09-30T04:30:08.911Z,79.61
2022-09-30T04:33:12.864Z,79.65
2022-09-30T04:36:15.893Z,79.68
2022-09-30T04:39:18.885Z,79.77
2022-09-30T04:42:21.912Z,79.84
2022-09-30T04:45:25.087Z,79.88
2022-09-30T04:48:30.351Z,79.96
2022-09-30T04:51:33.408Z,80.04
2022-09-30T04:54:36.594Z,80.07
2022-09-30T04:57:39.758Z,80.14
2022-09-30T05:00:42.810Z,80.18
2022-09-30T05:03:47.319Z,80.18
2022-09-30T05:06:50.379Z,80.20
2022-09-30T05:09:53.547Z,80.30
2022-09-30T05:12:58.088Z,80.35
2022-09-30T05:16:02.333Z,80.44
2022-09-30T05:19:05.593Z,80.50
2022-09-30T05:22:08.697Z,80.64
2022-09-30T05:25:11.850Z,80.78
2022-09-30T05:28:15.131Z,80.78
2022-09-30T05:31:20.845Z,80.80
2022-09-30T05:34:24.253Z,80.85
2022-09-30T05:37:27.355Z,80.88
2022-09-30T05:40:31.643Z,80.90
2022-09-30T05:43:37.311Z,80.94
2022-09-30T05:46:40.483Z,81.05
2022-09-30T05:49:43.546Z,81.10
2022-09-30T05:52:46.828Z,81.17
2022-09-30T05:55:50.582Z,81.21
2022-09-30T05:58:53.998Z,81.26
2022-09-30T06:01:57.032Z,81.26
2022-09-30T06:05:00.084Z,81.30
2022-09-30T06:08:04.202Z,81.40
2022-09-30T06:11:13.546Z,81.39
2022-09-30T06:14:20.015Z,81.39
2022-09-30T06:17:23.785Z,81.40
2022-09-30T06:20:26.974Z,81.37
2022-09-30T06:23:31.244Z,81.43
2022-09-30T06:26:34.331Z,81.43
2022-09-30T06:29:38.452Z,81.45
2022-09-30T06:32:42.591Z,81.46
2022-09-30T06:35:47.480Z,81.49
2022-09-30T06:38:54.509Z,81.54
2022-09-30T06:41:57.491Z,81.58
2022-09-30T06:45:01.191Z,81.56
2022-09-30T06:48:05.875Z,81.60
2022-09-30T06:51:11.764Z,81.65
2022-09-30T06:54:14.659Z,81.76
2022-09-30T06:57:22.635Z,81.89
2022-09-30T07:00:27.309Z,82.13
2022-09-30T07:03:33.075Z,82.30
2022-09-30T07:06:35.982Z,82.42
2022-09-30T07:09:39.101Z,82.52
2022-09-30T07:12:42.381Z,82.64
2022-09-30T07:15:45.303Z,82.71
2022-09-30T07:18:48.216Z,82.73
2022-09-30T07:21:51.411Z,82.86
2022-09-30T07:24:56.061Z,82.98
2022-09-30T07:27:58.997Z,82.98
2022-09-30T07:31:31.192Z,82.94
2022-09-30T07:34:31.158Z,83.14
2022-09-30T07:37:36.414Z,83.17
2022-09-30T07:40:39.295Z,83.22
2022-09-30T07:43:46.669Z,83.29
2022-09-30T07:46:49.726Z,83.37
2022-09-30T07:49:52.669Z,83.45
2022-09-30T07:52:56.405Z,83.54
2022-09-30T07:56:04.730Z,83.68
2022-09-30T07:59:08.101Z,83.76
2022-09-30T08:02:18.287Z,83.79
2022-09-30T08:05:21.844Z,83.85
2022-09-30T08:08:24.844Z,83.93
2022-09-30T08:11:27.925Z,83.90
2022-09-30T08:14:30.964Z,83.95
2022-09-30T08:17:33.870Z,83.97
2022-09-30T08:20:36.827Z,84.02
2022-09-30T08:23:40.486Z,84.06
2022-09-30T08:26:43.588Z,83.95
2022-09-30T08:29:55.513Z,83.79
2022-09-30T08:32:59.812Z,83.81
2022-09-30T08:36:10.937Z,83.78
2022-09-30T08:39:14.170Z,83.94
2022-09-30T08:42:38.821Z,84.04
2022-09-30T08:45:57.208Z,84.02
2022-09-30T08:49:24.347Z,84.02
2022-09-30T08:52:45.065Z,84.12
2022-09-30T08:55:54.561Z,84.16
2022-09-30T08:59:43.699Z,84.05
2022-09-30T09:02:50.107Z,84.08
2022-09-30T09:06:01.821Z,84.11
2022-09-30T09:09:23.582Z,84.20
2022-09-30T09:13:04.159Z,84.25
2022-09-30T09:16:30.250Z,84.25
2022-09-30T09:20:05.171Z,84.27
2022-09-30T09:23:11.902Z,84.24
2022-09-30T09:26:24.693Z,84.17
2022-09-30T09:29:49.010Z,84.28
2022-09-30T09:33:00.417Z,84.42
2022-09-30T09:36:34.105Z,84.40
2022-09-30T09:40:00.373Z,84.31
2022-09-30T09:43:26.291Z,84.29
2022-09-30T09:47:05.139Z,84.35
2022-09-30T09:50:19.367Z,84.45
2022-09-30T09:53:55.998Z,84.45
2022-09-30T09:57:16.111Z,84.59
2022-09-30T10:00:46.152Z,84.59
2022-09-30T10:04:14.746Z,84.55
2022-09-30T10:07:20.420Z,84.59
2022-09-30T10:10:24.470Z,84.70
2022-09-30T10:13:46.713Z,84.71
2022-09-30T10:16:55.006Z,84.72
2022-09-30T10:20:02.020Z,84.69
2022-09-30T10:23:32.425Z,84.78
2022-09-30T10:26:48.469Z,84.84
2022-09-30T10:29:57.097Z,84.68
2022-09-30T10:33:04.514Z,84.63
2022-09-30T10:36:13.931Z,84.69
2022-09-30T10:39:24.696Z,84.81
2022-09-30T10:42:36.270Z,84.86
2022-09-30T10:45:41.327Z,84.90
2022-09-30T10:48:50.508Z,85.01
2022-09-30T10:51:54.605Z,85.08
2022-09-30T10:54:59.978Z,85.09
2022-09-30T10:58:42.233Z,85.08
2022-09-30T11:02:01.978Z,84.99
2022-09-30T11:05:24.511Z,84.87
2022-09-30T11:08:45.327Z,84.84
2022-09-30T11:12:01.602Z,84.79
2022-09-30T11:15:24.096Z,84.72
2022-09-30T11:18:34.918Z,84.66
2022-09-30T11:21:46.478Z,84.61
2022-09-30T11:24:53.540Z,84.46
2022-09-30T11:28:31.223Z,84.31
2022-09-30T11:31:49.270Z,84.24
2022-09-30T11:35:23.099Z,84.36
2022-09-30T11:38:55.665Z,84.47
2022-09-30T11:42:17.645Z,84.57
2022-09-30T11:45:30.019Z,84.56
2022-09-30T11:48:35.769Z,84.43
2022-09-30T11:51:50.544Z,84.38
2022-09-30T11:55:13.083Z,84.35
2022-09-30T11:58:40.386Z,84.26
2022-09-30T12:01:49.432Z,84.18
2022-09-30T12:04:59.173Z,84.22
2022-09-30T12:08:11.980Z,84.28
2022-09-30T12:11:20.437Z,84.27
2022-09-30T12:14:34.502Z,84.27
2022-09-30T12:17:37.341Z,84.32
2022-09-30T12:20:43.203Z,84.43
2022-09-30T12:23:58.248Z,84.49
2022-09-30T12:27:02.073Z,84.51
2022-09-30T12:30:17.907Z,84.59
2022-09-30T12:33:56.365Z,84.60
2022-09-30T12:37:15.598Z,84.66
2022-09-30T12:40:33.227Z,84.59
2022-09-30T12:43:57.417Z,84.50
2022-09-30T12:47:19.558Z,84.53
2022-09-30T12:50:41.556Z,84.39
2022-09-30T12:53:50.184Z,84.35
2022-09-30T12:56:56.599Z,84.38
2022-09-30T13:00:08.298Z,84.43
2022-09-30T13:03:18.282Z,84.50
2022-09-30T13:06:22.482Z,84.48
2022-09-30T13:09:55.422Z,84.52
2022-09-30T13:13:10.574Z,84.61
2022-09-30T13:16:13.684Z,84.56
2022-09-30T13:19:21.399Z,84.53
2022-09-30T13:22:42.214Z,84.57
2022-09-30T13:25:54.820Z,84.67
2022-09-30T13:29:00.805Z,84.56
2022-09-30T13:32:05.431Z,84.46
2022-09-30T13:35:40.552Z,84.34
2022-09-30T13:38:43.633Z,84.31
2022-09-30T13:42:02.398Z,84.35
2022-09-30T13:45:21.958Z,84.36
2022-09-30T13:48:35.384Z,84.41
2022-09-30T13:51:41.729Z,84.37
2022-09-30T13:54:47.919Z,84.20
2022-09-30T13:58:28.472Z,84.19
2022-09-30T14:01:38.898Z,84.25
2022-09-30T14:04:47.543Z,84.29
2022-09-30T14:08:10.689Z,84.24
2022-09-30T14:11:13.735Z,84.22
2022-09-30T14:14:36.384Z,84.29
2022-09-30T14:17:49.637Z,84.36
2022-09-30T14:21:16.170Z,84.34
2022-09-30T14:24:24.133Z,84.43
2022-09-30T14:27:29.784Z,84.46
2022-09-30T14:30:39.508Z,84.47
2022-09-30T14:33:47.952Z,84.56
2022-09-30T14:36:53.624Z,84.65
2022-09-30T14:39:57.769Z,84.68
2022-09-30T14:43:06.288Z,84.70
2022-09-30T14:46:37.664Z,84.65
2022-09-30T14:49:41.163Z,84.68
2022-09-30T14:52:47.045Z,84.54
2022-09-30T14:55:50.297Z,84.48
2022-09-30T14:58:57.230Z,84.42
2022-09-30T15:02:22.319Z,84.45
2022-09-30T15:05:26.694Z,84.44
2022-09-30T15:08:29.690Z,84.29
2022-09-30T15:11:39.315Z,84.16
2022-09-30T15:14:56.926Z,84.09
2022-09-30T15:18:00.173Z,84.20
2022-09-30T15:21:31.344Z,84.26
2022-09-30T15:24:36.468Z,84.34
2022-09-30T15:27:39.757Z,84.39
2022-09-30T15:30:43.584Z,84.46
2022-09-30T15:33:46.717Z,84.51
2022-09-30T15:36:58.955Z,84.57
2022-09-30T15:40:21.278Z,84.62
2022-09-30T15:43:52.060Z,84.64
2022-09-30T15:47:10.934Z,84.63
2022-09-30T15:50:55.481Z,84.63
2022-09-30T15:54:29.328Z,84.64
2022-09-30T15:57:49.874Z,84.64
2022-09-30T16:01:21.805Z,84.70
2022-09-30T16:04:26.386Z,84.76
2022-09-30T16:07:32.022Z,84.75
2022-09-30T16:10:37.649Z,84.74
2022-09-30T16:13:45.412Z,84.75
2022-09-30T16:16:57.387Z,84.78
2022-09-30T16:20:05.303Z,84.79
2022-09-30T16:23:28.850Z,84.79
2022-09-30T16:26:34.135Z,84.79
2022-09-30T16:29:38.119Z,84.81
2022-09-30T16:32:44.310Z,84.84
2022-09-30T16:35:47.675Z,84.88
2022-09-30T16:38:50.687Z,84.89
2022-09-30T16:41:54.547Z,84.90
2022-09-30T16:45:01.215Z,84.92
2022-09-30T16:48:15.659Z,84.94
2022-09-30T16:51:18.832Z,85.01
2022-09-30T16:54:21.843Z,85.04
2022-09-30T16:57:24.721Z,85.08
2022-09-30T17:00:28.999Z,85.09
2022-09-30T17:03:32.906Z,85.12
2022-09-30T17:06:37.146Z,85.13
2022-09-30T17:09:40.550Z,85.14
2022-09-30T17:12:43.402Z,85.14
2022-09-30T17:15:52.616Z,85.08
2022-09-30T17:18:55.805Z,85.07
2022-09-30T17:21:58.646Z,85.09
2022-09-30T17:25:01.836Z,85.10
2022-09-30T17:28:06.114Z,85.09
2022-09-30T17:31:11.192Z,85.09
2022-09-30T17:34:14.598Z,85.09
2022-09-30T17:37:17.449Z,85.09
2022-09-30T17:40:38.621Z,85.07
2022-09-30T17:43:41.754Z,85.12
2022-09-30T17:46:45.678Z,85.10
2022-09-30T17:49:48.658Z,85.10
2022-09-30T17:52:51.612Z,85.14
2022-09-30T17:56:14.374Z,85.16
2022-09-30T17:59:21.566Z,85.17
2022-09-30T18:02:25.405Z,85.20
2022-09-30T18:05:30.685Z,85.23
2022-09-30T18:08:34.859Z,85.25
2022-09-30T18:11:43.340Z,85.27
2022-09-30T18:14:47.105Z,85.30
2022-09-30T18:17:50.114Z,85.31
2022-09-30T18:20:53.277Z,85.28
2022-09-30T18:23:57.731Z,85.30
2022-09-30T18:27:01.071Z,85.34
2022-09-30T18:30:06.104Z,85.38
2022-09-30T18:33:11.048Z,85.38
2022-09-30T18:36:14.668Z,85.38
2022-09-30T18:39:17.682Z,85.41
2022-09-30T18:42:20.733Z,85.44
2022-09-30T18:45:26.845Z,85.46
2022-09-30T18:48:30.894Z,85.46
2022-09-30T18:51:34.215Z,85.45
2022-09-30T18:54:41.788Z,85.49
2022-09-30T18:57:50.442Z,85.51
2022-09-30T19:00:55.995Z,85.51
2022-09-30T19:04:04.395Z,85.52
2022-09-30T19:07:07.812Z,85.54
2022-09-30T19:10:15.508Z,85.59
2022-09-30T19:13:18.574Z,85.61
2022-09-30T19:16:22.303Z,85.65
2022-09-30T19:19:25.523Z,85.66
2022-09-30T19:22:29.637Z,85.66
2022-09-30T19:25:32.657Z,85.66
2022-09-30T19:28:38.324Z,85.66
2022-09-30T19:31:45.433Z,85.67
2022-09-30T19:35:01.614Z,85.67
2022-09-30T19:38:12.085Z,85.67
2022-09-30T19:41:16.792Z,85.68
2022-09-30T19:44:21.649Z,85.68
2022-09-30T19:47:24.863Z,85.69
2022-09-30T19:50:28.293Z,85.67
2022-09-30T19:53:33.044Z,85.69
2022-09-30T19:56:38.247Z,85.70
2022-09-30T19:59:41.523Z,85.73
2022-09-30T20:02:45.550Z,85.75
2022-09-30T20:05:48.510Z,85.74
2022-09-30T20:09:00.270Z,85.73
2022-09-30T20:12:03.940Z,85.70
2022-09-30T20:15:28.052Z,85.71
2022-09-30T20:18:31.386Z,85.74
2022-09-30T20:21:35.423Z,85.75
2022-09-30T20:24:39.906Z,85.74
2022-09-30T20:27:51.920Z,85.74
2022-09-30T20:30:56.313Z,85.78
2022-09-30T20:34:00.131Z,85.76
2022-09-30T20:37:03.307Z,85.78
2022-09-30T20:40:09.245Z,85.81
2022-09-30T20:43:13.892Z,85.82
2022-09-30T20:46:16.798Z,85.83
2022-09-30T20:49:20.052Z,85.85
2022-09-30T20:52:23.693Z,85.88
2022-09-30T20:55:26.741Z,85.93
2022-09-30T20:58:29.881Z,85.97
2022-09-30T21:01:33.181Z,85.95
2022-09-30T21:04:36.409Z,85.97
2022-09-30T21:07:39.335Z,85.99
2022-09-30T21:10:42.286Z,86.06
2022-09-30T21:13:50.777Z,86.11
2022-09-30T21:16:53.897Z,86.15
2022-09-30T21:19:57.105Z,86.16
2022-09-30T21:22:59.988Z,86.16
2022-09-30T21:26:09.631Z,86.15
2022-09-30T21:29:12.705Z,86.15
2022-09-30T21:32:15.723Z,86.16
2022-09-30T21:35:18.669Z,86.18
2022-09-30T21:38:25.219Z,86.20
2022-09-30T21:41:28.358Z,86.23
2022-09-30T21:44:31.220Z,86.25
2022-09-30T21:47:34.397Z,86.29
2022-09-30T21:50:37.832Z,86.29
2022-09-30T21:53:41.396Z,86.30
2022-09-30T21:56:44.265Z,86.31
2022-09-30T21:59:50.374Z,86.32
2022-09-30T22:02:53.444Z,86.35
2022-09-30T22:05:58.375Z,86.39
2022-09-30T22:09:02.077Z,86.40
2022-09-30T22:12:08.991Z,86.37
2022-09-30T22:15:12.004Z,86.33
2022-09-30T22:18:20.690Z,86.31
2022-09-30T22:21:23.552Z,86.30
2022-09-30T22:24:26.386Z,86.31
2022-09-30T22:27:32.145Z,86.32
2022-09-30T22:30:37.954Z,86.30
2022-09-30T22:33:59.373Z,86.27
2022-09-30T22:37:20.517Z,86.29
2022-09-30T22:40:23.458Z,86.31
2022-09-30T22:43:27.365Z,86.32
2022-09-30T22:46:32.729Z,86.33
2022-09-30T22:49:36.254Z,86.33
2022-09-30T22:52:39.079Z,86.32
2022-09-30T22:55:41.993Z,86.32
2022-09-30T22:58:46.827Z,86.30
2022-09-30T23:01:49.754Z,86.28
2022-09-30T23:04:53.225Z,86.29
2022-09-30T23:07:56.080Z,86.26
2022-09-30T23:11:00.408Z,86.25
2022-09-30T23:14:03.401Z,86.26
2022-09-30T23:17:06.620Z,86.30
2022-09-30T23:20:10.042Z,86.30
2022-09-30T23:23:14.107Z,86.28
2022-09-30T23:26:20.244Z,86.26
2022-09-30T23:29:23.289Z,86.23
2022-09-30T23:32:26.716Z,86.23
2022-09-30T23:35:29.628Z,86.24
2022-09-30T23:38:33.497Z,86.21
2022-09-30T23:41:36.791Z,86.15
2022-09-30T23:44:39.875Z,86.10
2022-09-30T23:47:47.998Z,86.08
2022-09-30T23:50:51.492Z,86.10
2022-09-30T23:53:54.480Z,86.11
2022-09-30T23:56:57.408Z,86.10
